Hamilton, KS (66853)

3:25 PM CDT on October 01, 2014 (GMT -0500)
Toronto, KS | Change Station
CLOSE
Current Station
Personal Weather Station
Location: Toronto, KS
Elevation: 971 ft
Nearby Weather Stations
Active Advisory: Tornado Watch Active Notice: Record Report

Elev 971 ft 37.80 °N, 95.95 °W | Updated 40 seconds ago

Mostly Cloudy
Mostly Cloudy
78.8 °F
Feels Like 81 °F
N
0.0
Wind Variable Wind from ESE
Gusts 13.0 mph

Today
High -- | Low -- °F
--% Chance of Precip.
Yesterday
High -- | Low -- °F
Precip. -- in
7:20 AM 7:07 PM
Waxing Crescent, 50% visible
Pressure 29.68 in
Visibility 10.0 miles
Clouds Few 3400 ft
Scattered Clouds 5000 ft
Mostly Cloudy 10000 ft
Heat Index 81 °F
Dew Point 67 °F
Humidity 68%
Rainfall 0.21 in
Snow Depth Not available.
UV 3 out of 12
Pollen 1.80 out of 12
Air Quality Not available.
Flu Activity Not available.
METAR KEMP 011953Z AUTO 17012KT 10SM FEW034 SCT050 BKN100 28/20 A2970 RMK AO2 SLP048 T02780200

More Conditions Fewer Conditions

Pressure 29.68 in
Visibility 10.0 miles
Clouds Few 3400 ft
Scattered Clouds 5000 ft
Mostly Cloudy 10000 ft
Heat Index 81 °F
Dew Point 67 °F
Humidity 68%
Rainfall 0.21 in
Snow Depth Not available.
UV 3 out of 12
Pollen 1.80 out of 12
Air Quality Not available.
Flu Activity Not available.
METAR KEMP 011953Z AUTO 17012KT 10SM FEW034 SCT050 BKN100 28/20 A2970 RMK AO2 SLP048 T02780200

More Conditions Fewer Conditions

10-Day Weather Forecast

Almanac

Astronomy

Oct. 01, 2014 Rise Set
Actual Time 7:20 AM CDT 7:07 PM CDT
Civil Twilight 6:54 AM CDT 7:33 PM CDT
Nautical Twilight 6:23 AM CDT 8:04 PM CDT
Astronomical Twilight 5:52 AM CDT 8:35 PM CDT
Moon 2:18 PM CDT No Moon Set
Length of Visible Light 12h 39m
Length of Day
11h 47m
Tomorrow will be 2m 25s shorter.
Waxing Crescent, 50% of the Moon is Illuminated
Today
Waxing Crescent
Oct 8
Full
Oct 15
Last Quarter
Oct 23
New
Oct 30
First Quarter

Today's Extremes

State Highs State Lows

Community

WunderPhotos

Upload Photos

1,758,030 photos uploaded!

WunderBlogs® & News

By Dr. Jeff Masters
Director of Meteorology, Weather Underground
By Kari Strenfel
Meteorologist, Weather Underground
By Christopher C. Burt
Weather Historian, Weather Underground
October 1, 2014
October 1, 2014
October 1, 2014

Nearby

Snow Depth

Station Depth Elevation
No new snow has been reported.

Earthquake Activity

City Distance Mag. Time & Date
Harper, Kansas 106 miles 3.3 1:11 AM CDT
2014-10-01
Medford, Oklahoma 120 miles 2.5 10:49 PM CDT
2014-09-30
Medford, Oklahoma 122 miles 2.8 8:30 PM CDT
2014-09-30
Parsons, Kansas 60 miles 3.0 7:33 PM CDT
2014-09-30
Minimum magnitude displayed is 2.5.

Coastal Water Temperatures

Place Temperature
No Stations Reporting

Nearby Weather Stations